<?xml version='1.0' encoding='UTF-8'?><gpx version="1.1" creator="JPX - https://github.com/jenetics/jpx" xmlns="http://www.topografix.com/GPX/1/1"><trk><trkseg><trkpt lat="44.21356011404866" lon="11.432550876579963"><ele>539.0</ele><time>2026-04-25T10:28:00Z</time></trkpt><trkpt lat="44.21347384249705" lon="11.432527520735533"><ele>539.0</ele><time>2026-04-25T10:28:01Z</time></trkpt><trkpt lat="44.21340451368689" lon="11.432520874143387"><ele>539.0</ele><time>2026-04-25T10:28:02Z</time></trkpt><trkpt lat="44.21334898773123" lon="11.432570950638553"><ele>539.0</ele><time>2026-04-25T10:28:03Z</time></trkpt><trkpt lat="44.213334157057005" lon="11.432726901458139"><ele>539.0</ele><time>2026-04-25T10:28:05Z</time></trkpt><trkpt lat="44.21337435785001" lon="11.43279871318745"><ele>539.0</ele><time>2026-04-25T10:28:06Z</time></trkpt><trkpt lat="44.21343852053779" lon="11.432848662334356"><ele>539.0</ele><time>2026-04-25T10:28:07Z</time></trkpt><trkpt lat="44.213522975246576" lon="11.43288323936187"><ele>539.0</ele><time>2026-04-25T10:28:08Z</time></trkpt><trkpt lat="44.21362464040225" lon="11.43291544206108"><ele>539.0</ele><time>2026-04-25T10:28:09Z</time></trkpt><trkpt lat="44.21372652665327" lon="11.43295985570832"><ele>539.0</ele><time>2026-04-25T10:28:10Z</time></trkpt><trkpt lat="44.21382820813113" lon="11.433011109701075"><ele>539.0</ele><time>2026-04-25T10:28:11Z</time></trkpt><trkpt lat="44.21391257543879" lon="11.433104754771534"><ele>532.4</ele><time>2026-04-25T10:28:11.999Z</time></trkpt><trkpt lat="44.213997677471774" lon="11.433188462820903"><ele>525.8</ele><time>2026-04-25T10:28:12.999Z</time></trkpt><trkpt lat="44.21407597600692" lon="11.433280328561516"><ele>519.2</ele><time>2026-04-25T10:28:13.999Z</time></trkpt><trkpt lat="44.214156910665" lon="11.433367470561366"><ele>512.6</ele><time>2026-04-25T10:28:14.999Z</time></trkpt><trkpt lat="44.21423105072967" lon="11.433471937136844"><ele>506.0</ele><time>2026-04-25T10:28:15.999Z</time></trkpt><trkpt lat="44.214307915050505" lon="11.433574492795614"><ele>506.0</ele><time>2026-04-25T10:28:16.999Z</time></trkpt><trkpt lat="44.21437630424867" lon="11.433674787438347"><ele>506.0</ele><time>2026-04-25T10:28:17.999Z</time></trkpt><trkpt lat="44.214439264627714" lon="11.433775902970513"><ele>506.0</ele><time>2026-04-25T10:28:18.999Z</time></trkpt><trkpt lat="44.214513494898284" lon="11.433868534091637"><ele>506.0</ele><time>2026-04-25T10:28:19.999Z</time></trkpt><trkpt lat="44.2145379798813" lon="11.433983192572752"><ele>506.0</ele><time>2026-04-25T10:28:20.999Z</time></trkpt><trkpt lat="44.21453561238748" lon="11.434125951637663"><ele>507.4</ele><time>2026-04-25T10:28:21.999Z</time></trkpt><trkpt lat="44.21452719534173" lon="11.434289246444257"><ele>508.8</ele><time>2026-04-25T10:28:22.999Z</time></trkpt><trkpt lat="44.21455930039467" lon="11.434448010523639"><ele>510.19999999999993</ele><time>2026-04-25T10:28:23.999Z</time></trkpt><trkpt lat="44.21457205914887" lon="11.434600583272864"><ele>511.59999999999997</ele><time>2026-04-25T10:28:24.999Z</time></trkpt><trkpt lat="44.2145913073012" lon="11.434715015479485"><ele>513.0</ele><time>2026-04-25T10:28:25.999Z</time></trkpt><trkpt lat="44.21457865210866" lon="11.434809909622276"><ele>513.0</ele><time>2026-04-25T10:28:26.999Z</time></trkpt><trkpt lat="44.214491442720565" lon="11.434914884250139"><ele>513.0</ele><time>2026-04-25T10:28:28.999Z</time></trkpt><trkpt lat="44.21433061427504" lon="11.43519764022959"><ele>513.0</ele><time>2026-04-25T10:28:30.999Z</time></trkpt><trkpt lat="44.214371798436574" lon="11.435410922955633"><ele>512.0</ele><time>2026-04-25T10:28:31.999Z</time></trkpt><trkpt lat="44.21440078386716" lon="11.435568234111868"><ele>511.0</ele><time>2026-04-25T10:28:32.999Z</time></trkpt><trkpt lat="44.2144672546456" lon="11.435762675624725"><ele>510.0</ele><time>2026-04-25T10:28:33.999Z</time></trkpt><trkpt lat="44.21446983332379" lon="11.436007000644432"><ele>509.0</ele><time>2026-04-25T10:28:34.999Z</time></trkpt><trkpt lat="44.21448276786081" lon="11.4362769997982"><ele>510.0</ele><time>2026-04-25T10:28:35.999Z</time></trkpt><trkpt lat="44.214479859640136" lon="11.436538398492045"><ele>511.0</ele><time>2026-04-25T10:28:36.999Z</time></trkpt><trkpt lat="44.21447583306263" lon="11.436788761612572"><ele>512.0</ele><time>2026-04-25T10:28:37.999Z</time></trkpt><trkpt lat="44.21447894384238" lon="11.437012230775261"><ele>515.0</ele><time>2026-04-25T10:28:38.999Z</time></trkpt><trkpt lat="44.214500052437245" lon="11.43721167419409"><ele>518.0</ele><time>2026-04-25T10:28:39.999Z</time></trkpt><trkpt lat="44.21455831559527" lon="11.437412864417363"><ele>521.0</ele><time>2026-04-25T10:28:40.999Z</time></trkpt><trkpt lat="44.214652442257034" lon="11.437591584466064"><ele>521.0</ele><time>2026-04-25T10:28:41.999Z</time></trkpt><trkpt lat="44.21473599159551" lon="11.437762837951801"><ele>521.0</ele><time>2026-04-25T10:28:42.999Z</time></trkpt><trkpt lat="44.214791761798494" lon="11.437936021888435"><ele>521.0</ele><time>2026-04-25T10:28:43.999Z</time></trkpt><trkpt lat="44.214775135977135" lon="11.43812591489823"><ele>521.0</ele><time>2026-04-25T10:28:44.999Z</time></trkpt><trkpt lat="44.21475809697134" lon="11.43834110271472"><ele>522.3333333333333</ele><time>2026-04-25T10:28:45.999Z</time></trkpt><trkpt lat="44.21474490515095" lon="11.438581424363814"><ele>523.6666666666666</ele><time>2026-04-25T10:28:46.999Z</time></trkpt><trkpt lat="44.214766281235526" lon="11.438812556076872"><ele>525.0</ele><time>2026-04-25T10:28:47.999Z</time></trkpt><trkpt lat="44.21481278497382" lon="11.439022838017298"><ele>518.0</ele><time>2026-04-25T10:28:48.999Z</time></trkpt><trkpt lat="44.214897352346924" lon="11.43921497732854"><ele>511.0</ele><time>2026-04-25T10:28:49.999Z</time></trkpt><trkpt lat="44.21496463294145" lon="11.439375801889032"><ele>504.0</ele><time>2026-04-25T10:28:50.999Z</time></trkpt><trkpt lat="44.21495456117503" lon="11.439586882319645"><ele>497.0</ele><time>2026-04-25T10:28:51.999Z</time></trkpt><trkpt lat="44.21495058816421" lon="11.439866347966746"><ele>497.0</ele><time>2026-04-25T10:28:52.999Z</time></trkpt><trkpt lat="44.2149451682207" lon="11.440154682419326"><ele>497.0</ele><time>2026-04-25T10:28:53.999Z</time></trkpt><trkpt lat="44.21493305762723" lon="11.440406841150464"><ele>497.0</ele><time>2026-04-25T10:28:54.999Z</time></trkpt><trkpt lat="44.21490343760257" lon="11.440634394310862"><ele>496.0</ele><time>2026-04-25T10:28:55.999Z</time></trkpt><trkpt lat="44.214821463456495" lon="11.440810453295095"><ele>495.0</ele><time>2026-04-25T10:28:56.999Z</time></trkpt><trkpt lat="44.21474451570714" lon="11.441020794305544"><ele>494.0</ele><time>2026-04-25T10:28:57.999Z</time></trkpt><trkpt lat="44.21466942220842" lon="11.44120958504551"><ele>500.0</ele><time>2026-04-25T10:28:58.999Z</time></trkpt><trkpt lat="44.21464373735206" lon="11.441392742434548"><ele>506.0</ele><time>2026-04-25T10:28:59.999Z</time></trkpt><trkpt lat="44.21466896526319" lon="11.441574204165526"><ele>512.0</ele><time>2026-04-25T10:29:00.999Z</time></trkpt><trkpt lat="44.21473004471868" lon="11.441766643404264"><ele>518.0</ele><time>2026-04-25T10:29:01.999Z</time></trkpt><trkpt lat="44.21477717538756" lon="11.441986672716977"><ele>512.3333333333333</ele><time>2026-04-25T10:29:02.999Z</time></trkpt><trkpt lat="44.214833130100175" lon="11.44224947010273"><ele>506.66666666666663</ele><time>2026-04-25T10:29:03.999Z</time></trkpt><trkpt lat="44.21488826852253" lon="11.442514702635275"><ele>501.0</ele><time>2026-04-25T10:29:04.999Z</time></trkpt><trkpt lat="44.21493822689801" lon="11.442757678640215"><ele>502.75</ele><time>2026-04-25T10:29:05.999Z</time></trkpt><trkpt lat="44.214980216516125" lon="11.442974534039607"><ele>504.5</ele><time>2026-04-25T10:29:06.999Z</time></trkpt><trkpt lat="44.21502867530725" lon="11.44315057859125"><ele>506.25</ele><time>2026-04-25T10:29:07.999Z</time></trkpt><trkpt lat="44.215094154504804" lon="11.443265632562174"><ele>508.0</ele><time>2026-04-25T10:29:09Z</time></trkpt><trkpt lat="44.21515682300482" lon="11.443327007188344"><ele>508.00000000000006</ele><time>2026-04-25T10:29:10Z</time></trkpt><trkpt lat="44.21526200785191" lon="11.443341408741347"><ele>508.0</ele><time>2026-04-25T10:29:12Z</time></trkpt><trkpt lat="44.215341358205805" lon="11.443318109496017"><ele>508.0</ele><time>2026-04-25T10:29:14Z</time></trkpt><trkpt lat="44.21540536219098" lon="11.44339843680588"><ele>508.0</ele><time>2026-04-25T10:29:16Z</time></trkpt><trkpt lat="44.21544888101837" lon="11.443479326074845"><ele>508.00000000000006</ele><time>2026-04-25T10:29:19Z</time></trkpt><trkpt lat="44.21543414715588" lon="11.443594095164336"><ele>508.0</ele><time>2026-04-25T10:29:23Z</time></trkpt><trkpt lat="44.215350641708774" lon="11.443555170216092"><ele>508.0</ele><time>2026-04-25T10:29:26Z</time></trkpt><trkpt lat="44.21528926731277" lon="11.443453658146604"><ele>508.0</ele><time>2026-04-25T10:29:30Z</time></trkpt><trkpt lat="44.21524034708309" lon="11.443391497724315"><ele>508.0</ele><time>2026-04-25T10:29:32Z</time></trkpt><trkpt lat="44.21525126353769" lon="11.4433010779296"><ele>508.0</ele><time>2026-04-25T10:29:35Z</time></trkpt><trkpt lat="44.21531734929838" lon="11.443341784857708"><ele>508.0</ele><time>2026-04-25T10:29:38Z</time></trkpt><trkpt lat="44.21538644077886" lon="11.44338341508057"><ele>508.0</ele><time>2026-04-25T10:31:01.999Z</time></trkpt></trkseg></trk></gpx>